sensor_id;sensor_type;location;lat;lon;timestamp;P1;durP1;ratioP1;P2;durP2;ratioP2
21206;SDS011;10761;48.532;8.026;2024-03-08T00:01:47;27.75;;;19.63;;
21206;SDS011;10761;48.532;8.026;2024-03-08T00:04:13;30.88;;;19.45;;
21206;SDS011;10761;48.532;8.026;2024-03-08T00:06:40;28.67;;;19.90;;
21206;SDS011;10761;48.532;8.026;2024-03-08T00:09:06;31.02;;;20.02;;
21206;SDS011;10761;48.532;8.026;2024-03-08T00:11:33;29.35;;;19.50;;
21206;SDS011;10761;48.532;8.026;2024-03-08T00:13:59;31.15;;;20.15;;
21206;SDS011;10761;48.532;8.026;2024-03-08T00:16:25;27.48;;;18.75;;
21206;SDS011;10761;48.532;8.026;2024-03-08T00:18:51;26.33;;;18.13;;
21206;SDS011;10761;48.532;8.026;2024-03-08T00:21:16;26.83;;;18.52;;
21206;SDS011;10761;48.532;8.026;2024-03-08T00:23:42;25.70;;;18.48;;
21206;SDS011;10761;48.532;8.026;2024-03-08T00:26:07;26.95;;;18.48;;
21206;SDS011;10761;48.532;8.026;2024-03-08T00:28:33;25.92;;;18.30;;
21206;SDS011;10761;48.532;8.026;2024-03-08T00:30:59;26.15;;;17.75;;
21206;SDS011;10761;48.532;8.026;2024-03-08T00:33:25;25.00;;;17.52;;
21206;SDS011;10761;48.532;8.026;2024-03-08T00:35:52;24.98;;;16.75;;
21206;SDS011;10761;48.532;8.026;2024-03-08T00:38:18;25.83;;;17.60;;
21206;SDS011;10761;48.532;8.026;2024-03-08T00:40:44;27.13;;;18.45;;
21206;SDS011;10761;48.532;8.026;2024-03-08T00:43:10;24.30;;;17.23;;
21206;SDS011;10761;48.532;8.026;2024-03-08T00:45:35;24.90;;;17.10;;
21206;SDS011;10761;48.532;8.026;2024-03-08T00:48:02;25.52;;;16.80;;
21206;SDS011;10761;48.532;8.026;2024-03-08T00:50:28;25.60;;;17.05;;
21206;SDS011;10761;48.532;8.026;2024-03-08T00:52:54;24.23;;;16.75;;
21206;SDS011;10761;48.532;8.026;2024-03-08T00:55:19;25.70;;;16.48;;
21206;SDS011;10761;48.532;8.026;2024-03-08T00:57:45;23.65;;;16.30;;
21206;SDS011;10761;48.532;8.026;2024-03-08T01:00:11;25.10;;;16.83;;
21206;SDS011;10761;48.532;8.026;2024-03-08T01:02:37;23.50;;;16.40;;
21206;SDS011;10761;48.532;8.026;2024-03-08T01:05:04;25.88;;;16.90;;
21206;SDS011;10761;48.532;8.026;2024-03-08T01:07:32;24.98;;;16.38;;
21206;SDS011;10761;48.532;8.026;2024-03-08T01:09:59;25.25;;;16.25;;
21206;SDS011;10761;48.532;8.026;2024-03-08T01:12:25;22.83;;;15.45;;
21206;SDS011;10761;48.532;8.026;2024-03-08T01:14:51;22.77;;;15.57;;
21206;SDS011;10761;48.532;8.026;2024-03-08T01:17:16;24.65;;;16.48;;
21206;SDS011;10761;48.532;8.026;2024-03-08T01:19:42;21.15;;;15.43;;
21206;SDS011;10761;48.532;8.026;2024-03-08T01:22:09;22.55;;;16.08;;
21206;SDS011;10761;48.532;8.026;2024-03-08T01:24:35;25.42;;;16.10;;
21206;SDS011;10761;48.532;8.026;2024-03-08T01:27:02;22.42;;;16.70;;
21206;SDS011;10761;48.532;8.026;2024-03-08T01:29:27;23.08;;;15.40;;
21206;SDS011;10761;48.532;8.026;2024-03-08T01:31:54;22.67;;;15.43;;
21206;SDS011;10761;48.532;8.026;2024-03-08T01:34:25;31.00;;;15.85;;
21206;SDS011;10761;48.532;8.026;2024-03-08T01:36:50;23.45;;;15.75;;
21206;SDS011;10761;48.532;8.026;2024-03-08T01:39:16;21.30;;;15.10;;
21206;SDS011;10761;48.532;8.026;2024-03-08T01:41:42;23.40;;;15.70;;
21206;SDS011;10761;48.532;8.026;2024-03-08T01:44:07;21.00;;;15.18;;
21206;SDS011;10761;48.532;8.026;2024-03-08T01:46:34;24.52;;;16.23;;
21206;SDS011;10761;48.532;8.026;2024-03-08T01:49:00;23.40;;;15.68;;
21206;SDS011;10761;48.532;8.026;2024-03-08T01:51:27;22.33;;;15.77;;
21206;SDS011;10761;48.532;8.026;2024-03-08T01:53:53;22.25;;;14.85;;
21206;SDS011;10761;48.532;8.026;2024-03-08T01:56:22;25.02;;;16.23;;
21206;SDS011;10761;48.532;8.026;2024-03-08T01:58:50;23.52;;;15.75;;
21206;SDS011;10761;48.532;8.026;2024-03-08T02:01:16;24.00;;;16.27;;
21206;SDS011;10761;48.532;8.026;2024-03-08T02:03:41;21.23;;;15.40;;
21206;SDS011;10761;48.532;8.026;2024-03-08T02:06:09;21.13;;;14.60;;
21206;SDS011;10761;48.532;8.026;2024-03-08T02:08:36;23.17;;;16.10;;
21206;SDS011;10761;48.532;8.026;2024-03-08T02:11:03;25.92;;;16.40;;
21206;SDS011;10761;48.532;8.026;2024-03-08T02:13:29;26.90;;;16.77;;
21206;SDS011;10761;48.532;8.026;2024-03-08T02:15:59;22.65;;;15.48;;
21206;SDS011;10761;48.532;8.026;2024-03-08T02:18:25;21.02;;;14.75;;
21206;SDS011;10761;48.532;8.026;2024-03-08T02:20:52;21.90;;;15.45;;
21206;SDS011;10761;48.532;8.026;2024-03-08T02:23:22;21.90;;;15.45;;
21206;SDS011;10761;48.532;8.026;2024-03-08T02:25:49;22.05;;;14.93;;
21206;SDS011;10761;48.532;8.026;2024-03-08T02:28:16;21.15;;;15.15;;
21206;SDS011;10761;48.532;8.026;2024-03-08T02:30:43;23.58;;;15.68;;
21206;SDS011;10761;48.532;8.026;2024-03-08T02:33:12;23.02;;;15.88;;
21206;SDS011;10761;48.532;8.026;2024-03-08T02:35:41;21.92;;;15.60;;
21206;SDS011;10761;48.532;8.026;2024-03-08T02:38:10;25.20;;;16.55;;
21206;SDS011;10761;48.532;8.026;2024-03-08T02:40:43;23.75;;;16.65;;
21206;SDS011;10761;48.532;8.026;2024-03-08T02:43:13;26.98;;;16.35;;
21206;SDS011;10761;48.532;8.026;2024-03-08T02:45:40;23.55;;;15.70;;
21206;SDS011;10761;48.532;8.026;2024-03-08T02:48:07;24.50;;;16.70;;
21206;SDS011;10761;48.532;8.026;2024-03-08T02:50:33;22.02;;;15.07;;
21206;SDS011;10761;48.532;8.026;2024-03-08T02:53:02;21.10;;;14.98;;
21206;SDS011;10761;48.532;8.026;2024-03-08T02:55:30;22.58;;;15.50;;
21206;SDS011;10761;48.532;8.026;2024-03-08T02:57:55;24.98;;;16.60;;
21206;SDS011;10761;48.532;8.026;2024-03-08T03:00:21;21.40;;;15.10;;
21206;SDS011;10761;48.532;8.026;2024-03-08T03:02:51;25.48;;;16.17;;
21206;SDS011;10761;48.532;8.026;2024-03-08T03:05:19;21.00;;;15.23;;
21206;SDS011;10761;48.532;8.026;2024-03-08T03:07:45;26.42;;;16.08;;
21206;SDS011;10761;48.532;8.026;2024-03-08T03:10:10;23.83;;;15.25;;
21206;SDS011;10761;48.532;8.026;2024-03-08T03:12:37;21.92;;;15.27;;
21206;SDS011;10761;48.532;8.026;2024-03-08T03:15:03;23.73;;;15.43;;
21206;SDS011;10761;48.532;8.026;2024-03-08T03:17:29;23.73;;;15.35;;
21206;SDS011;10761;48.532;8.026;2024-03-08T03:19:55;21.13;;;15.38;;
21206;SDS011;10761;48.532;8.026;2024-03-08T03:22:20;22.27;;;15.00;;
21206;SDS011;10761;48.532;8.026;2024-03-08T03:24:46;25.35;;;16.55;;
21206;SDS011;10761;48.532;8.026;2024-03-08T03:27:12;21.58;;;15.43;;
21206;SDS011;10761;48.532;8.026;2024-03-08T03:29:40;22.17;;;14.85;;
21206;SDS011;10761;48.532;8.026;2024-03-08T03:32:13;24.40;;;15.02;;
21206;SDS011;10761;48.532;8.026;2024-03-08T03:34:40;24.35;;;15.05;;
21206;SDS011;10761;48.532;8.026;2024-03-08T03:37:07;24.80;;;16.17;;
21206;SDS011;10761;48.532;8.026;2024-03-08T03:39:34;22.13;;;16.05;;
21206;SDS011;10761;48.532;8.026;2024-03-08T03:41:59;22.02;;;15.40;;
21206;SDS011;10761;48.532;8.026;2024-03-08T03:44:27;23.52;;;16.27;;
21206;SDS011;10761;48.532;8.026;2024-03-08T03:46:53;21.65;;;15.48;;
21206;SDS011;10761;48.532;8.026;2024-03-08T03:49:19;23.75;;;16.75;;
21206;SDS011;10761;48.532;8.026;2024-03-08T03:51:44;24.70;;;16.63;;
21206;SDS011;10761;48.532;8.026;2024-03-08T03:54:10;23.80;;;16.77;;
21206;SDS011;10761;48.532;8.026;2024-03-08T03:56:37;25.48;;;16.95;;
21206;SDS011;10761;48.532;8.026;2024-03-08T03:59:04;22.75;;;16.23;;
21206;SDS011;10761;48.532;8.026;2024-03-08T04:01:31;24.33;;;15.65;;
21206;SDS011;10761;48.532;8.026;2024-03-08T04:03:57;25.00;;;15.95;;
21206;SDS011;10761;48.532;8.026;2024-03-08T04:06:23;24.83;;;15.43;;
21206;SDS011;10761;48.532;8.026;2024-03-08T04:08:49;24.23;;;16.88;;
21206;SDS011;10761;48.532;8.026;2024-03-08T04:11:14;24.95;;;16.80;;
21206;SDS011;10761;48.532;8.026;2024-03-08T04:13:41;23.48;;;16.42;;
21206;SDS011;10761;48.532;8.026;2024-03-08T04:16:07;23.13;;;15.57;;
21206;SDS011;10761;48.532;8.026;2024-03-08T04:18:34;25.95;;;16.63;;
21206;SDS011;10761;48.532;8.026;2024-03-08T04:21:00;26.65;;;16.65;;
21206;SDS011;10761;48.532;8.026;2024-03-08T04:23:27;25.13;;;16.52;;
21206;SDS011;10761;48.532;8.026;2024-03-08T04:25:53;24.63;;;16.83;;
21206;SDS011;10761;48.532;8.026;2024-03-08T04:28:19;25.92;;;16.63;;
21206;SDS011;10761;48.532;8.026;2024-03-08T04:30:44;24.45;;;16.75;;
21206;SDS011;10761;48.532;8.026;2024-03-08T04:33:11;23.48;;;16.27;;
21206;SDS011;10761;48.532;8.026;2024-03-08T04:35:36;26.55;;;17.83;;
21206;SDS011;10761;48.532;8.026;2024-03-08T04:38:02;26.85;;;16.88;;
21206;SDS011;10761;48.532;8.026;2024-03-08T04:40:30;23.70;;;16.08;;
21206;SDS011;10761;48.532;8.026;2024-03-08T04:42:56;25.42;;;17.05;;
21206;SDS011;10761;48.532;8.026;2024-03-08T04:45:23;27.20;;;17.10;;
21206;SDS011;10761;48.532;8.026;2024-03-08T04:47:50;26.40;;;18.13;;
21206;SDS011;10761;48.532;8.026;2024-03-08T04:50:17;27.02;;;17.60;;
21206;SDS011;10761;48.532;8.026;2024-03-08T04:52:43;27.33;;;17.33;;
21206;SDS011;10761;48.532;8.026;2024-03-08T04:55:08;24.58;;;17.27;;
21206;SDS011;10761;48.532;8.026;2024-03-08T04:57:34;25.83;;;17.45;;
21206;SDS011;10761;48.532;8.026;2024-03-08T05:00:00;25.38;;;17.30;;
21206;SDS011;10761;48.532;8.026;2024-03-08T05:02:27;24.25;;;17.08;;
21206;SDS011;10761;48.532;8.026;2024-03-08T05:04:52;25.70;;;17.05;;
21206;SDS011;10761;48.532;8.026;2024-03-08T05:07:18;26.42;;;17.25;;
21206;SDS011;10761;48.532;8.026;2024-03-08T05:09:44;23.95;;;16.73;;
21206;SDS011;10761;48.532;8.026;2024-03-08T05:12:16;25.23;;;16.98;;
21206;SDS011;10761;48.532;8.026;2024-03-08T05:14:42;28.10;;;17.70;;
21206;SDS011;10761;48.532;8.026;2024-03-08T05:17:08;27.38;;;16.98;;
21206;SDS011;10761;48.532;8.026;2024-03-08T05:19:34;25.55;;;17.33;;
21206;SDS011;10761;48.532;8.026;2024-03-08T05:22:01;25.23;;;17.70;;
21206;SDS011;10761;48.532;8.026;2024-03-08T05:24:28;27.08;;;18.65;;
21206;SDS011;10761;48.532;8.026;2024-03-08T05:26:54;24.65;;;16.88;;
21206;SDS011;10761;48.532;8.026;2024-03-08T05:29:20;24.88;;;16.58;;
21206;SDS011;10761;48.532;8.026;2024-03-08T05:31:49;25.50;;;16.40;;
21206;SDS011;10761;48.532;8.026;2024-03-08T05:34:17;23.98;;;15.90;;
21206;SDS011;10761;48.532;8.026;2024-03-08T05:36:44;23.60;;;16.45;;
21206;SDS011;10761;48.532;8.026;2024-03-08T05:39:11;24.75;;;16.25;;
21206;SDS011;10761;48.532;8.026;2024-03-08T05:41:41;26.88;;;17.25;;
21206;SDS011;10761;48.532;8.026;2024-03-08T05:44:07;24.40;;;16.65;;
21206;SDS011;10761;48.532;8.026;2024-03-08T05:46:33;26.50;;;17.45;;
21206;SDS011;10761;48.532;8.026;2024-03-08T05:49:00;25.73;;;16.92;;
21206;SDS011;10761;48.532;8.026;2024-03-08T05:51:30;27.25;;;17.27;;
21206;SDS011;10761;48.532;8.026;2024-03-08T05:54:01;28.33;;;18.27;;
21206;SDS011;10761;48.532;8.026;2024-03-08T05:56:27;24.92;;;16.63;;
21206;SDS011;10761;48.532;8.026;2024-03-08T05:58:54;23.83;;;16.70;;
21206;SDS011;10761;48.532;8.026;2024-03-08T06:01:19;26.45;;;17.65;;
21206;SDS011;10761;48.532;8.026;2024-03-08T06:03:45;24.13;;;16.73;;
21206;SDS011;10761;48.532;8.026;2024-03-08T06:06:12;24.80;;;16.67;;
21206;SDS011;10761;48.532;8.026;2024-03-08T06:08:38;26.65;;;17.13;;
21206;SDS011;10761;48.532;8.026;2024-03-08T06:11:04;25.73;;;16.73;;
21206;SDS011;10761;48.532;8.026;2024-03-08T06:13:31;26.08;;;17.40;;
21206;SDS011;10761;48.532;8.026;2024-03-08T06:15:57;27.20;;;17.40;;
21206;SDS011;10761;48.532;8.026;2024-03-08T06:18:22;26.35;;;17.15;;
21206;SDS011;10761;48.532;8.026;2024-03-08T06:20:48;23.50;;;17.15;;
21206;SDS011;10761;48.532;8.026;2024-03-08T06:23:13;25.08;;;16.23;;
21206;SDS011;10761;48.532;8.026;2024-03-08T06:25:43;26.40;;;16.42;;
21206;SDS011;10761;48.532;8.026;2024-03-08T06:28:09;26.00;;;16.55;;
21206;SDS011;10761;48.532;8.026;2024-03-08T06:30:35;25.15;;;17.08;;
21206;SDS011;10761;48.532;8.026;2024-03-08T06:33:00;25.92;;;16.88;;
21206;SDS011;10761;48.532;8.026;2024-03-08T06:35:27;23.70;;;16.67;;
21206;SDS011;10761;48.532;8.026;2024-03-08T06:37:52;26.60;;;16.67;;
21206;SDS011;10761;48.532;8.026;2024-03-08T06:40:18;25.10;;;15.68;;
21206;SDS011;10761;48.532;8.026;2024-03-08T06:42:43;22.35;;;15.77;;
21206;SDS011;10761;48.532;8.026;2024-03-08T06:45:09;26.55;;;16.08;;
21206;SDS011;10761;48.532;8.026;2024-03-08T06:47:35;29.83;;;16.25;;
21206;SDS011;10761;48.532;8.026;2024-03-08T06:50:02;23.00;;;15.55;;
21206;SDS011;10761;48.532;8.026;2024-03-08T06:52:27;22.23;;;15.57;;
21206;SDS011;10761;48.532;8.026;2024-03-08T06:54:53;24.05;;;16.40;;
21206;SDS011;10761;48.532;8.026;2024-03-08T06:57:18;24.83;;;15.85;;
21206;SDS011;10761;48.532;8.026;2024-03-08T06:59:47;23.17;;;15.75;;
21206;SDS011;10761;48.532;8.026;2024-03-08T07:02:13;25.42;;;16.05;;
21206;SDS011;10761;48.532;8.026;2024-03-08T07:04:38;22.67;;;14.88;;
21206;SDS011;10761;48.532;8.026;2024-03-08T07:07:04;24.90;;;16.40;;
21206;SDS011;10761;48.532;8.026;2024-03-08T07:09:30;25.50;;;16.45;;
21206;SDS011;10761;48.532;8.026;2024-03-08T07:11:56;21.80;;;15.48;;
21206;SDS011;10761;48.532;8.026;2024-03-08T07:14:22;23.00;;;16.27;;
21206;SDS011;10761;48.532;8.026;2024-03-08T07:16:48;21.67;;;15.73;;
21206;SDS011;10761;48.532;8.026;2024-03-08T07:19:14;21.95;;;15.35;;
21206;SDS011;10761;48.532;8.026;2024-03-08T07:21:44;20.80;;;14.52;;
21206;SDS011;10761;48.532;8.026;2024-03-08T07:24:10;21.65;;;15.15;;
21206;SDS011;10761;48.532;8.026;2024-03-08T07:29:07;23.17;;;16.60;;
21206;SDS011;10761;48.532;8.026;2024-03-08T07:31:33;22.13;;;15.75;;
21206;SDS011;10761;48.532;8.026;2024-03-08T07:34:17;28.63;;;19.67;;
21206;SDS011;10761;48.532;8.026;2024-03-08T07:36:43;21.08;;;14.93;;
21206;SDS011;10761;48.532;8.026;2024-03-08T07:39:08;18.70;;;14.05;;
21206;SDS011;10761;48.532;8.026;2024-03-08T07:41:39;16.67;;;13.13;;
21206;SDS011;10761;48.532;8.026;2024-03-08T07:44:06;18.10;;;13.30;;
21206;SDS011;10761;48.532;8.026;2024-03-08T07:46:32;18.15;;;13.38;;
21206;SDS011;10761;48.532;8.026;2024-03-08T07:48:59;17.40;;;13.35;;
21206;SDS011;10761;48.532;8.026;2024-03-08T07:51:25;18.50;;;13.80;;
21206;SDS011;10761;48.532;8.026;2024-03-08T07:53:50;17.80;;;13.52;;
21206;SDS011;10761;48.532;8.026;2024-03-08T07:56:16;18.88;;;14.07;;
21206;SDS011;10761;48.532;8.026;2024-03-08T07:58:43;19.30;;;14.48;;
21206;SDS011;10761;48.532;8.026;2024-03-08T08:01:15;23.67;;;15.57;;
21206;SDS011;10761;48.532;8.026;2024-03-08T08:03:41;23.08;;;14.70;;
21206;SDS011;10761;48.532;8.026;2024-03-08T08:06:07;21.45;;;16.38;;
21206;SDS011;10761;48.532;8.026;2024-03-08T08:08:33;17.05;;;13.55;;
21206;SDS011;10761;48.532;8.026;2024-03-08T08:10:59;23.27;;;17.10;;
21206;SDS011;10761;48.532;8.026;2024-03-08T08:13:24;26.15;;;19.05;;
21206;SDS011;10761;48.532;8.026;2024-03-08T08:15:50;23.10;;;17.13;;
21206;SDS011;10761;48.532;8.026;2024-03-08T08:18:15;23.85;;;16.20;;
21206;SDS011;10761;48.532;8.026;2024-03-08T08:20:42;22.00;;;16.88;;
21206;SDS011;10761;48.532;8.026;2024-03-08T08:23:07;22.38;;;16.80;;
21206;SDS011;10761;48.532;8.026;2024-03-08T08:25:37;24.85;;;17.30;;
21206;SDS011;10761;48.532;8.026;2024-03-08T08:28:03;21.23;;;16.00;;
21206;SDS011;10761;48.532;8.026;2024-03-08T08:30:29;21.70;;;16.42;;
21206;SDS011;10761;48.532;8.026;2024-03-08T08:32:54;22.88;;;16.95;;
21206;SDS011;10761;48.532;8.026;2024-03-08T08:35:20;22.33;;;17.13;;
21206;SDS011;10761;48.532;8.026;2024-03-08T08:37:47;24.48;;;19.10;;
21206;SDS011;10761;48.532;8.026;2024-03-08T08:40:12;26.95;;;19.02;;
21206;SDS011;10761;48.532;8.026;2024-03-08T08:42:42;30.10;;;19.35;;
21206;SDS011;10761;48.532;8.026;2024-03-08T08:45:08;26.45;;;17.63;;
21206;SDS011;10761;48.532;8.026;2024-03-08T08:47:35;20.20;;;16.60;;
21206;SDS011;10761;48.532;8.026;2024-03-08T08:50:01;22.63;;;16.10;;
21206;SDS011;10761;48.532;8.026;2024-03-08T08:52:27;20.00;;;16.23;;
21206;SDS011;10761;48.532;8.026;2024-03-08T08:54:54;20.30;;;16.35;;
21206;SDS011;10761;48.532;8.026;2024-03-08T08:57:19;21.63;;;16.90;;
21206;SDS011;10761;48.532;8.026;2024-03-08T08:59:45;18.42;;;15.23;;
21206;SDS011;10761;48.532;8.026;2024-03-08T09:02:11;20.67;;;15.27;;
21206;SDS011;10761;48.532;8.026;2024-03-08T09:04:37;17.67;;;14.65;;
21206;SDS011;10761;48.532;8.026;2024-03-08T09:07:03;19.35;;;15.98;;
21206;SDS011;10761;48.532;8.026;2024-03-08T09:09:31;19.25;;;15.68;;
21206;SDS011;10761;48.532;8.026;2024-03-08T09:11:57;19.85;;;16.08;;
21206;SDS011;10761;48.532;8.026;2024-03-08T09:14:22;19.67;;;15.23;;
21206;SDS011;10761;48.532;8.026;2024-03-08T09:16:49;20.27;;;15.82;;
21206;SDS011;10761;48.532;8.026;2024-03-08T09:19:15;19.73;;;15.05;;
21206;SDS011;10761;48.532;8.026;2024-03-08T09:21:42;19.85;;;15.35;;
21206;SDS011;10761;48.532;8.026;2024-03-08T09:24:07;19.48;;;15.13;;
21206;SDS011;10761;48.532;8.026;2024-03-08T09:26:33;22.73;;;15.75;;
21206;SDS011;10761;48.532;8.026;2024-03-08T09:28:58;19.00;;;14.85;;
21206;SDS011;10761;48.532;8.026;2024-03-08T09:31:24;17.75;;;14.68;;
21206;SDS011;10761;48.532;8.026;2024-03-08T09:33:51;19.23;;;15.07;;
21206;SDS011;10761;48.532;8.026;2024-03-08T09:36:17;18.38;;;15.07;;
21206;SDS011;10761;48.532;8.026;2024-03-08T09:38:42;18.27;;;14.38;;
21206;SDS011;10761;48.532;8.026;2024-03-08T09:41:08;18.45;;;14.93;;
21206;SDS011;10761;48.532;8.026;2024-03-08T09:43:35;19.02;;;14.38;;
21206;SDS011;10761;48.532;8.026;2024-03-08T09:46:01;17.63;;;14.35;;
21206;SDS011;10761;48.532;8.026;2024-03-08T09:48:28;17.90;;;14.20;;
21206;SDS011;10761;48.532;8.026;2024-03-08T09:50:54;17.38;;;14.30;;
21206;SDS011;10761;48.532;8.026;2024-03-08T09:53:21;18.85;;;14.82;;
21206;SDS011;10761;48.532;8.026;2024-03-08T09:55:47;18.58;;;14.98;;
21206;SDS011;10761;48.532;8.026;2024-03-08T09:58:14;19.08;;;14.75;;
21206;SDS011;10761;48.532;8.026;2024-03-08T10:00:42;19.00;;;14.48;;
21206;SDS011;10761;48.532;8.026;2024-03-08T10:03:08;20.80;;;14.60;;
21206;SDS011;10761;48.532;8.026;2024-03-08T10:05:34;19.20;;;14.88;;
21206;SDS011;10761;48.532;8.026;2024-03-08T10:07:59;17.27;;;14.90;;
21206;SDS011;10761;48.532;8.026;2024-03-08T10:10:25;18.05;;;15.05;;
21206;SDS011;10761;48.532;8.026;2024-03-08T10:12:51;17.95;;;13.80;;
21206;SDS011;10761;48.532;8.026;2024-03-08T10:15:17;19.27;;;14.70;;
21206;SDS011;10761;48.532;8.026;2024-03-08T10:17:42;19.05;;;14.88;;
21206;SDS011;10761;48.532;8.026;2024-03-08T10:20:18;19.13;;;15.10;;
21206;SDS011;10761;48.532;8.026;2024-03-08T10:22:44;19.33;;;14.32;;
21206;SDS011;10761;48.532;8.026;2024-03-08T10:25:13;21.80;;;15.25;;
21206;SDS011;10761;48.532;8.026;2024-03-08T10:27:39;20.45;;;15.43;;
21206;SDS011;10761;48.532;8.026;2024-03-08T10:30:12;17.52;;;14.43;;
21206;SDS011;10761;48.532;8.026;2024-03-08T10:32:40;20.20;;;15.32;;
21206;SDS011;10761;48.532;8.026;2024-03-08T10:35:09;20.67;;;15.30;;
21206;SDS011;10761;48.532;8.026;2024-03-08T10:37:42;20.75;;;15.18;;
21206;SDS011;10761;48.532;8.026;2024-03-08T10:40:13;17.55;;;14.40;;
21206;SDS011;10761;48.532;8.026;2024-03-08T10:42:57;17.88;;;13.77;;
21206;SDS011;10761;48.532;8.026;2024-03-08T10:50:57;18.98;;;14.68;;
21206;SDS011;10761;48.532;8.026;2024-03-08T10:53:27;20.50;;;15.80;;
21206;SDS011;10761;48.532;8.026;2024-03-08T10:55:54;22.88;;;15.20;;
21206;SDS011;10761;48.532;8.026;2024-03-08T10:58:22;19.63;;;15.93;;
21206;SDS011;10761;48.532;8.026;2024-03-08T11:00:52;19.50;;;14.90;;
21206;SDS011;10761;48.532;8.026;2024-03-08T11:03:43;20.92;;;14.48;;
21206;SDS011;10761;48.532;8.026;2024-03-08T11:06:09;17.38;;;13.38;;
21206;SDS011;10761;48.532;8.026;2024-03-08T11:08:55;19.08;;;13.98;;
21206;SDS011;10761;48.532;8.026;2024-03-08T11:11:26;18.30;;;13.80;;
21206;SDS011;10761;48.532;8.026;2024-03-08T11:13:56;16.83;;;14.07;;
21206;SDS011;10761;48.532;8.026;2024-03-08T11:18:58;17.90;;;14.18;;
21206;SDS011;10761;48.532;8.026;2024-03-08T11:21:46;17.58;;;13.77;;
21206;SDS011;10761;48.532;8.026;2024-03-08T11:24:13;17.73;;;13.90;;
21206;SDS011;10761;48.532;8.026;2024-03-08T11:26:41;19.13;;;13.55;;
21206;SDS011;10761;48.532;8.026;2024-03-08T11:32:11;17.40;;;13.77;;
21206;SDS011;10761;48.532;8.026;2024-03-08T11:34:39;20.02;;;13.70;;
21206;SDS011;10761;48.532;8.026;2024-03-08T11:37:14;16.80;;;13.38;;
21206;SDS011;10761;48.532;8.026;2024-03-08T11:39:46;16.70;;;13.48;;
21206;SDS011;10761;48.532;8.026;2024-03-08T11:42:16;18.30;;;14.20;;
21206;SDS011;10761;48.532;8.026;2024-03-08T11:44:46;19.98;;;14.80;;
21206;SDS011;10761;48.532;8.026;2024-03-08T11:47:12;18.58;;;14.82;;
21206;SDS011;10761;48.532;8.026;2024-03-08T11:49:39;17.33;;;14.32;;
21206;SDS011;10761;48.532;8.026;2024-03-08T11:52:10;19.30;;;14.95;;
21206;SDS011;10761;48.532;8.026;2024-03-08T11:54:38;18.13;;;14.27;;
21206;SDS011;10761;48.532;8.026;2024-03-08T11:57:04;18.17;;;14.13;;
21206;SDS011;10761;48.532;8.026;2024-03-08T11:59:30;21.75;;;13.45;;
21206;SDS011;10761;48.532;8.026;2024-03-08T12:02:06;20.30;;;14.80;;
21206;SDS011;10761;48.532;8.026;2024-03-08T12:04:35;15.77;;;13.27;;
21206;SDS011;10761;48.532;8.026;2024-03-08T12:07:01;15.85;;;12.95;;
21206;SDS011;10761;48.532;8.026;2024-03-08T12:09:28;16.35;;;13.02;;
21206;SDS011;10761;48.532;8.026;2024-03-08T12:11:54;18.33;;;12.52;;
21206;SDS011;10761;48.532;8.026;2024-03-08T12:14:19;16.05;;;12.60;;
21206;SDS011;10761;48.532;8.026;2024-03-08T12:16:45;14.82;;;12.77;;
21206;SDS011;10761;48.532;8.026;2024-03-08T12:19:13;16.63;;;12.88;;
21206;SDS011;10761;48.532;8.026;2024-03-08T12:21:39;15.00;;;12.30;;
21206;SDS011;10761;48.532;8.026;2024-03-08T12:24:13;13.38;;;11.55;;
21206;SDS011;10761;48.532;8.026;2024-03-08T12:26:44;15.10;;;12.55;;
21206;SDS011;10761;48.532;8.026;2024-03-08T12:29:14;14.20;;;11.70;;
21206;SDS011;10761;48.532;8.026;2024-03-08T12:31:42;14.68;;;12.13;;
21206;SDS011;10761;48.532;8.026;2024-03-08T12:34:08;13.43;;;11.50;;
21206;SDS011;10761;48.532;8.026;2024-03-08T12:36:34;15.27;;;12.32;;
21206;SDS011;10761;48.532;8.026;2024-03-08T12:39:01;13.25;;;11.85;;
21206;SDS011;10761;48.532;8.026;2024-03-08T12:41:30;15.50;;;11.75;;
21206;SDS011;10761;48.532;8.026;2024-03-08T12:43:57;14.73;;;12.52;;
21206;SDS011;10761;48.532;8.026;2024-03-08T12:46:23;15.50;;;12.10;;
21206;SDS011;10761;48.532;8.026;2024-03-08T12:48:51;14.70;;;12.02;;
21206;SDS011;10761;48.532;8.026;2024-03-08T12:51:18;13.35;;;11.60;;
21206;SDS011;10761;48.532;8.026;2024-03-08T12:53:47;16.00;;;12.02;;
21206;SDS011;10761;48.532;8.026;2024-03-08T12:56:12;14.25;;;11.77;;
21206;SDS011;10761;48.532;8.026;2024-03-08T12:58:40;13.15;;;11.75;;
21206;SDS011;10761;48.532;8.026;2024-03-08T13:01:06;13.90;;;11.68;;
21206;SDS011;10761;48.532;8.026;2024-03-08T13:03:33;12.95;;;11.20;;
21206;SDS011;10761;48.532;8.026;2024-03-08T13:06:01;13.50;;;12.10;;
21206;SDS011;10761;48.532;8.026;2024-03-08T13:08:36;16.45;;;11.70;;
21206;SDS011;10761;48.532;8.026;2024-03-08T13:11:04;13.00;;;11.65;;
21206;SDS011;10761;48.532;8.026;2024-03-08T13:13:33;12.65;;;11.10;;
21206;SDS011;10761;48.532;8.026;2024-03-08T13:16:02;12.88;;;11.57;;
21206;SDS011;10761;48.532;8.026;2024-03-08T13:18:28;12.73;;;11.43;;
21206;SDS011;10761;48.532;8.026;2024-03-08T13:20:54;13.40;;;11.93;;
21206;SDS011;10761;48.532;8.026;2024-03-08T13:23:20;13.32;;;11.63;;
21206;SDS011;10761;48.532;8.026;2024-03-08T13:25:46;12.75;;;11.35;;
21206;SDS011;10761;48.532;8.026;2024-03-08T13:28:14;13.13;;;11.70;;
21206;SDS011;10761;48.532;8.026;2024-03-08T13:30:40;13.98;;;11.32;;
21206;SDS011;10761;48.532;8.026;2024-03-08T13:33:06;12.18;;;10.98;;
21206;SDS011;10761;48.532;8.026;2024-03-08T13:35:32;14.95;;;12.00;;
21206;SDS011;10761;48.532;8.026;2024-03-08T13:37:59;14.52;;;11.95;;
21206;SDS011;10761;48.532;8.026;2024-03-08T13:40:28;13.48;;;12.05;;
21206;SDS011;10761;48.532;8.026;2024-03-08T13:42:53;17.17;;;12.18;;
21206;SDS011;10761;48.532;8.026;2024-03-08T13:45:19;13.20;;;11.45;;
21206;SDS011;10761;48.532;8.026;2024-03-08T13:47:49;13.63;;;11.88;;
21206;SDS011;10761;48.532;8.026;2024-03-08T13:50:16;14.45;;;11.40;;
21206;SDS011;10761;48.532;8.026;2024-03-08T13:52:46;13.63;;;11.02;;
21206;SDS011;10761;48.532;8.026;2024-03-08T13:55:14;14.02;;;11.25;;
21206;SDS011;10761;48.532;8.026;2024-03-08T13:57:40;14.23;;;11.88;;
21206;SDS011;10761;48.532;8.026;2024-03-08T14:00:05;12.75;;;11.43;;
21206;SDS011;10761;48.532;8.026;2024-03-08T14:02:32;13.32;;;11.02;;
21206;SDS011;10761;48.532;8.026;2024-03-08T14:04:58;12.27;;;10.98;;
21206;SDS011;10761;48.532;8.026;2024-03-08T14:07:27;12.95;;;11.38;;
21206;SDS011;10761;48.532;8.026;2024-03-08T14:09:54;12.23;;;10.93;;
21206;SDS011;10761;48.532;8.026;2024-03-08T14:12:19;11.93;;;10.73;;
21206;SDS011;10761;48.532;8.026;2024-03-08T14:14:45;11.80;;;10.60;;
21206;SDS011;10761;48.532;8.026;2024-03-08T14:17:11;12.10;;;9.85;;
21206;SDS011;10761;48.532;8.026;2024-03-08T14:19:42;13.68;;;10.88;;
21206;SDS011;10761;48.532;8.026;2024-03-08T14:22:07;11.27;;;10.18;;
21206;SDS011;10761;48.532;8.026;2024-03-08T14:24:35;12.32;;;10.80;;
21206;SDS011;10761;48.532;8.026;2024-03-08T14:27:01;12.40;;;10.25;;
21206;SDS011;10761;48.532;8.026;2024-03-08T14:29:28;10.82;;;9.73;;
21206;SDS011;10761;48.532;8.026;2024-03-08T14:31:57;10.40;;;9.30;;
21206;SDS011;10761;48.532;8.026;2024-03-08T14:34:24;11.18;;;9.98;;